createdAt,value
2022-10-18T00:00:55.291Z,73.65
2022-10-18T00:03:37.078Z,73.53
2022-10-18T00:06:05.242Z,73.85
2022-10-18T00:08:31.974Z,73.99
2022-10-18T00:10:58.602Z,74.03
2022-10-18T00:13:25.629Z,74.27
2022-10-18T00:15:59.710Z,74.43
2022-10-18T00:18:27.670Z,74.53
2022-10-18T00:21:06.501Z,74.66
2022-10-18T00:23:34.249Z,74.82
2022-10-18T00:26:02.671Z,74.90
2022-10-18T00:28:29.468Z,74.98
2022-10-18T00:30:56.678Z,75.05
2022-10-18T00:33:23.465Z,75.22
2022-10-18T00:35:50.062Z,75.23
2022-10-18T00:38:16.892Z,75.34
2022-10-18T00:40:43.642Z,75.34
2022-10-18T00:43:15.367Z,75.25
2022-10-18T00:45:42.416Z,75.20
2022-10-18T00:48:11.008Z,75.20
2022-10-18T00:50:37.996Z,75.41
2022-10-18T00:53:12.477Z,75.43
2022-10-18T00:55:39.222Z,75.37
2022-10-18T00:58:07.465Z,75.46
2022-10-18T01:00:38.176Z,75.52
2022-10-18T01:03:05.859Z,75.58
2022-10-18T01:05:36.231Z,75.59
2022-10-18T01:08:28.994Z,75.53
2022-10-18T01:11:22.861Z,75.50
2022-10-18T01:14:07.692Z,75.65
2022-10-18T01:16:43.090Z,75.73
2022-10-18T01:19:40.596Z,75.78
2022-10-18T01:22:13.322Z,75.77
2022-10-18T01:25:06.447Z,75.75
2022-10-18T01:28:14.863Z,75.75
2022-10-18T01:30:47.495Z,75.76
2022-10-18T01:33:37.040Z,75.85
2022-10-18T01:36:25.515Z,75.96
2022-10-18T01:38:56.953Z,75.86
2022-10-18T01:41:25.032Z,75.78
2022-10-18T01:43:56.888Z,75.74
2022-10-18T01:46:25.334Z,75.82
2022-10-18T01:48:54.052Z,75.72
2022-10-18T01:51:26.620Z,75.78
2022-10-18T01:53:53.713Z,75.66
2022-10-18T01:56:31.852Z,75.68
2022-10-18T01:59:23.572Z,75.54
2022-10-18T02:02:02.211Z,75.47
2022-10-18T02:04:49.154Z,75.49
2022-10-18T02:07:42.436Z,75.64
2022-10-18T02:10:21.127Z,75.50
2022-10-18T02:12:51.302Z,75.54
2022-10-18T02:15:23.908Z,75.47
2022-10-18T02:17:53.800Z,75.48
2022-10-18T02:20:23.041Z,75.46
2022-10-18T02:22:53.686Z,75.42
2022-10-18T02:25:26.690Z,75.40
2022-10-18T02:27:53.845Z,75.37
2022-10-18T02:30:31.962Z,75.46
2022-10-18T02:33:09.640Z,75.57
2022-10-18T02:35:44.085Z,75.54
2022-10-18T02:38:13.781Z,75.63
2022-10-18T02:40:40.403Z,75.49
2022-10-18T02:43:07.201Z,75.59
2022-10-18T02:45:34.010Z,75.61
2022-10-18T02:48:00.815Z,75.62
2022-10-18T02:50:27.414Z,75.67
2022-10-18T02:52:54.050Z,75.52
2022-10-18T02:55:20.775Z,75.68
2022-10-18T02:57:47.369Z,75.52
2022-10-18T03:00:14.751Z,75.69
2022-10-18T03:02:41.428Z,75.53
2022-10-18T03:05:08.059Z,75.58
2022-10-18T03:07:34.971Z,75.63
2022-10-18T03:10:01.789Z,75.56
2022-10-18T03:12:28.407Z,75.50
2022-10-18T03:14:55.055Z,75.39
2022-10-18T03:17:21.714Z,75.50
2022-10-18T03:19:48.314Z,75.45
2022-10-18T03:22:14.975Z,75.41
2022-10-18T03:24:41.694Z,75.45
2022-10-18T03:27:08.293Z,75.43
2022-10-18T03:29:34.907Z,75.44
2022-10-18T03:32:01.563Z,75.33
2022-10-18T03:34:28.208Z,75.44
2022-10-18T03:36:54.846Z,75.46
2022-10-18T03:39:21.624Z,75.38
2022-10-18T03:41:48.276Z,75.31
2022-10-18T03:44:14.889Z,75.30
2022-10-18T03:46:41.590Z,75.29
2022-10-18T03:49:08.532Z,75.28
2022-10-18T03:51:35.157Z,75.28
2022-10-18T03:54:01.886Z,75.31
2022-10-18T03:56:28.602Z,75.27
2022-10-18T03:58:56.482Z,75.44
2022-10-18T04:01:23.168Z,75.52
2022-10-18T04:03:50.163Z,75.51
2022-10-18T04:06:16.862Z,75.49
2022-10-18T04:08:43.434Z,75.51
2022-10-18T04:11:10.652Z,75.46
2022-10-18T04:13:37.962Z,75.30
2022-10-18T04:16:04.644Z,75.19
2022-10-18T04:18:31.331Z,75.20
2022-10-18T04:20:58.341Z,75.25
2022-10-18T04:23:25.039Z,75.32
2022-10-18T04:25:51.749Z,75.28
2022-10-18T04:28:18.572Z,75.17
2022-10-18T04:30:49.912Z,75.27
2022-10-18T04:33:17.288Z,74.96
2022-10-18T04:35:44.031Z,74.96
2022-10-18T04:38:10.921Z,74.89
2022-10-18T04:40:37.509Z,75.05
2022-10-18T04:43:04.208Z,75.24
2022-10-18T04:45:30.870Z,75.33
2022-10-18T04:47:57.476Z,75.12
2022-10-18T04:50:24.268Z,74.98
2022-10-18T04:52:52.824Z,74.63
2022-10-18T04:55:19.805Z,74.58
2022-10-18T04:57:46.551Z,74.69
2022-10-18T05:00:13.761Z,74.60
2022-10-18T05:02:40.358Z,74.84
2022-10-18T05:05:10.413Z,74.97
2022-10-18T05:07:39.964Z,74.97
2022-10-18T05:10:07.507Z,75.03
2022-10-18T05:12:34.544Z,75.02
2022-10-18T05:15:01.450Z,74.84
2022-10-18T05:17:28.176Z,74.75
2022-10-18T05:19:55.185Z,75.00
2022-10-18T05:22:21.819Z,74.89
2022-10-18T05:24:48.490Z,75.08
2022-10-18T05:27:15.178Z,75.02
2022-10-18T05:29:41.772Z,75.12
2022-10-18T05:32:08.506Z,75.10
2022-10-18T05:34:35.149Z,75.27
2022-10-18T05:37:01.894Z,75.10
2022-10-18T05:39:28.709Z,75.10
2022-10-18T05:41:55.430Z,74.98
2022-10-18T05:44:22.035Z,74.86
2022-10-18T05:46:48.699Z,74.89
2022-10-18T05:49:15.450Z,74.90
2022-10-18T05:51:42.066Z,74.82
2022-10-18T05:54:11.335Z,75.19
2022-10-18T05:59:11.394Z,75.14
2022-10-18T06:01:39.584Z,75.27
2022-10-18T06:04:07.214Z,75.35
2022-10-18T06:06:33.930Z,75.41
2022-10-18T06:09:03.138Z,75.15
2022-10-18T06:11:30.767Z,75.26
2022-10-18T06:13:57.598Z,75.42
2022-10-18T06:16:29.841Z,75.54
2022-10-18T06:18:59.445Z,75.66
2022-10-18T06:21:27.401Z,75.76
2022-10-18T06:23:58.483Z,75.67
2022-10-18T06:26:26.958Z,75.49
2022-10-18T06:28:53.674Z,75.41
2022-10-18T06:31:20.752Z,75.37
2022-10-18T06:33:47.869Z,75.39
2022-10-18T06:36:21.464Z,75.42
2022-10-18T06:38:48.995Z,75.31
2022-10-18T06:41:17.314Z,75.45
2022-10-18T06:43:48.232Z,75.29
2022-10-18T06:46:15.302Z,75.07
2022-10-18T06:48:42.020Z,75.04
2022-10-18T06:51:09.684Z,75.15
2022-10-18T06:53:44.228Z,75.49
2022-10-18T06:56:20.006Z,75.66
2022-10-18T06:58:46.871Z,75.83
2022-10-18T07:01:15.631Z,75.85
2022-10-18T07:03:43.954Z,75.88
2022-10-18T07:06:12.261Z,75.99
2022-10-18T07:08:39.727Z,75.99
2022-10-18T07:11:08.021Z,75.78
2022-10-18T07:13:34.739Z,75.65
2022-10-18T07:16:11.582Z,75.52
2022-10-18T07:18:43.857Z,75.53
2022-10-18T07:21:16.441Z,75.41
2022-10-18T07:23:46.023Z,75.48
2022-10-18T07:26:16.998Z,75.67
2022-10-18T07:28:46.511Z,75.74
2022-10-18T07:31:13.437Z,75.71
2022-10-18T07:33:42.314Z,75.59
2022-10-18T07:36:10.758Z,75.69
2022-10-18T07:38:37.608Z,75.65
2022-10-18T07:41:06.405Z,75.67
2022-10-18T07:43:34.179Z,75.70
2022-10-18T07:46:03.297Z,75.66
2022-10-18T07:48:30.415Z,75.63
2022-10-18T07:51:01.335Z,75.60
2022-10-18T07:53:28.995Z,75.57
2022-10-18T07:56:01.480Z,75.51
2022-10-18T07:58:33.841Z,75.51
2022-10-18T08:01:05.190Z,75.57
2022-10-18T08:03:32.464Z,75.45
2022-10-18T08:05:59.358Z,75.26
2022-10-18T08:08:28.113Z,75.31
2022-10-18T08:10:54.939Z,75.18
2022-10-18T08:13:21.797Z,75.09
2022-10-18T08:15:48.517Z,74.97
2022-10-18T08:18:15.190Z,74.95
2022-10-18T08:20:43.910Z,74.87
2022-10-18T08:23:10.572Z,74.89
2022-10-18T08:25:37.584Z,74.94
2022-10-18T08:28:04.462Z,74.93
2022-10-18T08:30:31.179Z,74.90
2022-10-18T08:32:57.843Z,74.80
2022-10-18T08:35:24.889Z,74.59
2022-10-18T08:37:51.552Z,74.61
2022-10-18T08:40:18.380Z,74.63
2022-10-18T08:43:23.419Z,74.64
2022-10-18T08:45:51.675Z,74.80
2022-10-18T08:48:49.585Z,74.63
2022-10-18T08:51:27.837Z,74.54
2022-10-18T08:54:05.831Z,74.41
2022-10-18T08:56:34.005Z,74.24
2022-10-18T08:59:03.529Z,74.34
2022-10-18T09:04:32.210Z,74.29
2022-10-18T09:06:59.124Z,74.01
2022-10-18T09:10:02.130Z,73.82
2022-10-18T09:12:43.967Z,73.93
2022-10-18T09:15:28.820Z,73.88
2022-10-18T09:18:24.778Z,73.81
2022-10-18T09:20:57.962Z,73.83
2022-10-18T09:23:44.907Z,73.66
2022-10-18T09:26:20.170Z,73.56
2022-10-18T09:29:05.430Z,73.76
2022-10-18T09:31:50.630Z,73.50
2022-10-18T09:34:25.846Z,73.64
2022-10-18T09:36:53.596Z,73.67
2022-10-18T09:39:25.217Z,73.56
2022-10-18T09:41:57.187Z,73.59
2022-10-18T09:44:35.186Z,73.58
2022-10-18T09:47:25.178Z,73.56
2022-10-18T09:49:56.847Z,73.68
2022-10-18T09:52:31.689Z,73.43
2022-10-18T09:55:03.673Z,73.31
2022-10-18T09:57:48.339Z,73.15
2022-10-18T10:00:20.525Z,73.00
2022-10-18T10:02:47.186Z,73.08
2022-10-18T10:05:14.914Z,73.18
2022-10-18T10:07:44.832Z,73.31
2022-10-18T10:10:24.507Z,73.19
2022-10-18T10:13:15.457Z,73.02
2022-10-18T10:16:01.616Z,73.00
2022-10-18T10:18:35.872Z,73.08
2022-10-18T10:21:06.332Z,73.12
2022-10-18T10:23:52.437Z,73.04
2022-10-18T10:26:32.937Z,73.10
2022-10-18T10:29:00.107Z,73.13
2022-10-18T10:31:29.027Z,73.17
2022-10-18T10:34:03.384Z,73.17
2022-10-18T10:36:31.867Z,73.21
2022-10-18T10:39:06.519Z,73.28
2022-10-18T10:41:34.242Z,73.19
2022-10-18T10:44:03.429Z,73.20
2022-10-18T10:46:35.928Z,73.23
2022-10-18T10:49:34.977Z,73.13
2022-10-18T10:52:08.548Z,73.27
2022-10-18T10:54:38.757Z,73.22
2022-10-18T10:57:19.787Z,73.14
2022-10-18T10:59:53.046Z,73.22
2022-10-18T11:02:30.623Z,73.17
2022-10-18T11:05:26.336Z,73.26
2022-10-18T11:07:59.259Z,73.32
2022-10-18T11:10:30.545Z,73.34
2022-10-18T11:13:01.762Z,73.30
2022-10-18T11:15:49.363Z,73.37
2022-10-18T11:18:31.007Z,73.27
2022-10-18T11:21:00.730Z,73.26
2022-10-18T11:23:31.960Z,73.29
2022-10-18T11:26:10.736Z,73.38
2022-10-18T11:28:43.453Z,73.34
2022-10-18T11:31:21.527Z,73.41
2022-10-18T11:34:22.243Z,73.33
2022-10-18T11:37:28.208Z,73.26
2022-10-18T11:40:02.262Z,73.29
2022-10-18T11:42:47.018Z,73.26
2022-10-18T11:45:22.929Z,73.27
2022-10-18T11:47:55.111Z,73.36
2022-10-18T11:50:53.584Z,73.39
2022-10-18T11:53:42.607Z,73.41
2022-10-18T11:56:19.399Z,73.33
2022-10-18T11:59:01.483Z,73.40
2022-10-18T12:01:51.237Z,73.42
2022-10-18T12:04:27.327Z,73.51
2022-10-18T12:06:55.758Z,73.42
2022-10-18T12:09:30.378Z,73.46
2022-10-18T12:12:02.559Z,73.26
2022-10-18T12:14:38.059Z,73.38
2022-10-18T12:17:40.660Z,73.45
2022-10-18T12:20:14.215Z,73.46
2022-10-18T12:22:58.999Z,73.45
2022-10-18T12:25:28.483Z,73.56
2022-10-18T12:28:22.289Z,73.45
2022-10-18T12:31:02.393Z,73.57
2022-10-18T12:33:37.771Z,73.57
2022-10-18T12:36:17.031Z,73.62
2022-10-18T12:38:47.404Z,73.60
2022-10-18T12:41:26.996Z,73.47
2022-10-18T12:43:59.290Z,73.51
2022-10-18T12:46:43.252Z,73.50
2022-10-18T12:49:12.847Z,73.46
2022-10-18T12:51:51.744Z,73.46
2022-10-18T12:54:25.075Z,73.42
2022-10-18T12:56:52.065Z,73.42
2022-10-18T12:59:18.994Z,73.47
2022-10-18T13:01:54.605Z,73.48
2022-10-18T13:04:27.504Z,73.48
2022-10-18T13:06:57.257Z,73.40
2022-10-18T13:09:26.425Z,73.40
2022-10-18T13:12:14.412Z,73.31
2022-10-18T13:15:24.656Z,73.23
2022-10-18T13:18:31.350Z,73.07
2022-10-18T13:21:01.130Z,73.23
2022-10-18T13:23:36.969Z,73.18
2022-10-18T13:26:23.153Z,73.24
2022-10-18T13:28:49.815Z,72.81
2022-10-18T13:31:19.822Z,72.78
2022-10-18T13:33:46.659Z,72.45
2022-10-18T13:36:21.648Z,72.63
2022-10-18T13:38:52.841Z,72.63
2022-10-18T13:41:21.594Z,72.75
2022-10-18T13:44:27.513Z,72.61
2022-10-18T13:46:54.222Z,72.66
2022-10-18T13:49:30.149Z,72.31
2022-10-18T13:52:06.522Z,72.19
2022-10-18T13:55:12.123Z,72.13
2022-10-18T13:57:53.860Z,72.30
2022-10-18T14:00:54.392Z,72.36
2022-10-18T14:06:36.524Z,72.09
2022-10-18T14:09:25.712Z,71.96
2022-10-18T14:12:12.338Z,71.91
2022-10-18T14:15:11.467Z,71.63
2022-10-18T14:17:50.500Z,71.66
2022-10-18T14:20:28.757Z,72.01
2022-10-18T14:23:18.403Z,71.64
2022-10-18T14:25:46.073Z,71.49
2022-10-18T14:28:12.807Z,71.11
2022-10-18T14:30:57.489Z,70.64
2022-10-18T14:33:45.727Z,70.66
2022-10-18T14:36:24.244Z,71.08
2022-10-18T14:38:52.744Z,70.70
2022-10-18T14:41:19.383Z,70.69
2022-10-18T14:43:47.661Z,71.15
2022-10-18T14:46:25.886Z,71.33
2022-10-18T14:48:58.461Z,71.18
2022-10-18T14:51:28.259Z,71.00
2022-10-18T14:53:55.322Z,71.27
2022-10-18T14:56:22.763Z,71.35
2022-10-18T14:58:50.186Z,71.44
2022-10-18T15:01:19.740Z,71.38
2022-10-18T15:03:47.492Z,71.56
2022-10-18T15:06:19.229Z,71.77
2022-10-18T15:08:50.884Z,71.64
2022-10-18T15:11:17.959Z,71.64
2022-10-18T15:13:51.483Z,71.59
2022-10-18T15:16:19.611Z,71.86
2022-10-18T15:19:06.961Z,71.96
2022-10-18T15:21:35.635Z,71.83
2022-10-18T15:24:29.423Z,71.67
2022-10-18T15:27:01.199Z,71.53
2022-10-18T15:29:32.812Z,71.63
2022-10-18T15:32:12.377Z,71.71
2022-10-18T15:34:39.148Z,71.62
2022-10-18T15:37:42.387Z,71.84
2022-10-18T15:40:21.063Z,71.82
2022-10-18T15:42:52.822Z,71.64
2022-10-18T15:45:26.841Z,71.31
2022-10-18T15:47:58.977Z,70.80
2022-10-18T15:50:35.002Z,70.72
2022-10-18T15:53:27.473Z,70.88
2022-10-18T15:55:57.108Z,70.91
2022-10-18T15:58:23.695Z,70.51
2022-10-18T16:00:55.548Z,70.31
2022-10-18T16:03:23.925Z,70.44
2022-10-18T16:05:59.983Z,70.49
2022-10-18T16:08:36.446Z,70.52
2022-10-18T16:11:03.234Z,70.83
2022-10-18T16:13:29.919Z,70.48
2022-10-18T16:15:56.656Z,70.35
2022-10-18T16:18:24.204Z,70.28
2022-10-18T16:20:50.975Z,70.87
2022-10-18T16:23:17.719Z,70.88
2022-10-18T16:25:44.541Z,71.37
2022-10-18T16:28:21.009Z,71.55
2022-10-18T16:31:00.385Z,71.34
2022-10-18T16:33:27.520Z,71.71
2022-10-18T16:35:54.596Z,71.92
2022-10-18T16:38:28.688Z,71.98
2022-10-18T16:40:58.044Z,71.80
2022-10-18T16:47:19.097Z,71.73
2022-10-18T16:49:49.899Z,71.96
2022-10-18T16:52:16.719Z,72.15
2022-10-18T16:54:43.556Z,72.11
2022-10-18T16:57:12.847Z,72.16
2022-10-18T16:59:39.595Z,72.03
2022-10-18T17:02:08.767Z,72.21
2022-10-18T17:04:35.576Z,72.22
2022-10-18T17:07:04.288Z,72.27
2022-10-18T17:09:34.206Z,72.29
2022-10-18T17:12:01.027Z,72.19
2022-10-18T17:14:35.897Z,72.50
2022-10-18T17:18:17.286Z,72.21
2022-10-18T17:20:00.489Z,72.33
2022-10-18T17:22:27.351Z,72.15
2022-10-18T17:24:54.841Z,72.20
2022-10-18T17:27:21.683Z,72.41
2022-10-18T17:29:48.424Z,72.53
2022-10-18T17:32:15.509Z,72.55
2022-10-18T17:34:42.411Z,72.32
2022-10-18T17:37:09.136Z,72.24
2022-10-18T17:39:36.249Z,72.46
2022-10-18T17:42:03.397Z,72.43
2022-10-18T17:44:30.625Z,72.63
2022-10-18T17:47:07.739Z,72.64
2022-10-18T17:49:34.525Z,72.68
2022-10-18T17:52:06.001Z,72.78
2022-10-18T17:54:34.969Z,72.84
2022-10-18T18:04:13.434Z,73.12
2022-10-18T18:06:40.792Z,73.06
2022-10-18T18:09:13.205Z,73.12
2022-10-18T18:11:43.040Z,73.20
2022-10-18T18:14:12.352Z,73.26
2022-10-18T18:16:41.699Z,73.26
2022-10-18T18:19:10.064Z,73.25
2022-10-18T18:21:37.794Z,73.06
2022-10-18T18:24:04.933Z,73.12
2022-10-18T18:26:32.840Z,73.12
2022-10-18T18:31:34.330Z,73.15
2022-10-18T18:34:05.603Z,73.27
2022-10-18T18:36:32.420Z,73.21
2022-10-18T18:38:59.374Z,73.13
2022-10-18T18:41:27.917Z,73.10
2022-10-18T18:43:58.473Z,73.01
2022-10-18T18:46:27.923Z,73.11
2022-10-18T18:48:57.106Z,73.04
2022-10-18T18:51:24.645Z,73.15
2022-10-18T18:53:51.900Z,73.16
2022-10-18T18:56:23.469Z,73.25
2022-10-18T18:58:51.998Z,73.09
2022-10-18T19:01:21.650Z,72.93
2022-10-18T19:03:50.561Z,73.07
2022-10-18T19:06:19.792Z,73.02
2022-10-18T19:08:47.840Z,73.11
2022-10-18T19:11:18.135Z,72.97
2022-10-18T19:13:45.294Z,72.81
2022-10-18T19:16:18.815Z,72.64
2022-10-18T19:18:58.020Z,72.69
2022-10-18T19:21:27.446Z,72.72
2022-10-18T19:23:56.184Z,72.76
2022-10-18T19:26:22.782Z,72.84
2022-10-18T19:28:49.603Z,72.78
2022-10-18T19:31:16.354Z,72.90
2022-10-18T19:33:55.593Z,72.60
2022-10-18T19:36:25.686Z,72.63
2022-10-18T19:38:52.361Z,72.72
2022-10-18T19:41:19.200Z,72.71
2022-10-18T19:43:46.442Z,72.67
2022-10-18T19:46:13.369Z,72.74
2022-10-18T19:48:40.122Z,72.86
2022-10-18T19:51:20.323Z,72.87
2022-10-18T19:53:53.363Z,72.44
2022-10-18T19:56:22.736Z,72.45
2022-10-18T19:58:50.276Z,72.56
2022-10-18T20:01:17.711Z,72.64
2022-10-18T20:03:45.167Z,72.75
2022-10-18T20:06:12.260Z,72.85
2022-10-18T20:08:39.445Z,73.00
2022-10-18T20:11:11.577Z,72.82
2022-10-18T20:13:38.656Z,72.59
2022-10-18T20:16:08.314Z,72.78
2022-10-18T20:18:35.497Z,72.68
2022-10-18T20:21:09.687Z,72.63
2022-10-18T20:23:38.632Z,72.58
2022-10-18T20:26:20.822Z,72.56
2022-10-18T20:28:58.026Z,72.57
2022-10-18T20:31:34.918Z,72.53
2022-10-18T20:34:04.516Z,72.61
2022-10-18T20:36:32.196Z,72.66
2022-10-18T20:38:59.805Z,72.54
2022-10-18T20:41:31.944Z,72.50
2022-10-18T20:44:04.172Z,72.45
2022-10-18T20:46:33.218Z,72.47
2022-10-18T20:49:00.347Z,72.48
2022-10-18T20:51:27.754Z,72.60
2022-10-18T20:53:54.606Z,72.62
2022-10-18T20:56:25.866Z,72.45
2022-10-18T20:58:55.193Z,72.52
2022-10-18T21:01:24.981Z,72.65
2022-10-18T21:03:52.697Z,72.57
2022-10-18T21:06:23.032Z,72.50
2022-10-18T21:09:05.116Z,72.61
2022-10-18T21:11:36.081Z,72.42
2022-10-18T21:14:03.487Z,72.42
2022-10-18T21:16:35.278Z,72.53
2022-10-18T21:19:03.726Z,72.65
2022-10-18T21:21:31.493Z,72.51
2022-10-18T21:23:58.968Z,72.48
2022-10-18T21:26:28.051Z,72.55
2022-10-18T21:28:57.926Z,72.70
2022-10-18T21:31:29.762Z,72.48
2022-10-18T21:34:02.297Z,72.40
2022-10-18T21:36:36.824Z,72.69
2022-10-18T21:39:07.153Z,72.70
2022-10-18T21:41:34.288Z,72.72
2022-10-18T21:44:04.459Z,72.73
2022-10-18T21:46:33.763Z,72.61
2022-10-18T21:49:00.852Z,72.68
2022-10-18T21:51:28.270Z,72.55
2022-10-18T21:53:56.844Z,72.50
2022-10-18T21:56:30.892Z,72.37
2022-10-18T21:58:58.251Z,72.39
2022-10-18T22:01:27.820Z,72.58
2022-10-18T22:03:55.594Z,72.62
2022-10-18T22:06:23.263Z,72.75
2022-10-18T22:08:56.191Z,72.49
2022-10-18T22:11:29.694Z,72.72
2022-10-18T22:13:57.271Z,72.73
2022-10-18T22:16:24.594Z,72.59
2022-10-18T22:18:52.619Z,72.73
2022-10-18T22:21:20.045Z,72.66
2022-10-18T22:23:49.548Z,72.63
2022-10-18T22:26:18.991Z,72.33
2022-10-18T22:28:46.553Z,72.43
2022-10-18T22:31:22.003Z,72.64
2022-10-18T22:33:57.137Z,72.51
2022-10-18T22:36:24.374Z,72.68
2022-10-18T22:38:51.159Z,72.63
2022-10-18T22:41:18.386Z,72.68
2022-10-18T22:43:47.156Z,72.72
2022-10-18T22:46:14.562Z,72.67
2022-10-18T22:48:41.683Z,72.57
2022-10-18T22:51:09.484Z,72.44
2022-10-18T22:53:37.624Z,72.49
2022-10-18T22:56:04.968Z,72.51
2022-10-18T22:58:32.008Z,72.69
2022-10-18T23:01:07.832Z,72.49
2022-10-18T23:03:34.894Z,72.50
2022-10-18T23:06:01.796Z,72.60
2022-10-18T23:08:29.345Z,72.55
2022-10-18T23:10:58.959Z,72.44
2022-10-18T23:13:27.139Z,72.20
2022-10-18T23:16:04.297Z,72.14
2022-10-18T23:18:32.749Z,72.39
2022-10-18T23:21:03.820Z,72.49
2022-10-18T23:23:34.765Z,72.45
2022-10-18T23:26:09.936Z,72.38
2022-10-18T23:28:38.847Z,72.31
2022-10-18T23:31:14.522Z,72.19
2022-10-18T23:33:41.323Z,72.41
2022-10-18T23:36:08.351Z,72.66
2022-10-18T23:38:36.053Z,72.62
2022-10-18T23:41:03.057Z,72.61
2022-10-18T23:43:29.832Z,72.60
2022-10-18T23:45:56.793Z,72.84
2022-10-18T23:48:23.509Z,73.24
2022-10-18T23:50:50.200Z,73.27
2022-10-18T23:53:19.061Z,73.43
2022-10-18T23:55:53.696Z,73.37
2022-10-18T23:58:21.092Z,73.36
